createdAt,value
2017-01-02T00:00:56.066Z,71.25
2017-01-02T00:01:56.070Z,71.34
2017-01-02T00:02:56.087Z,71.15
2017-01-02T00:03:56.092Z,71.15
2017-01-02T00:04:56.103Z,71.15
2017-01-02T00:05:56.116Z,71.15
2017-01-02T00:06:56.121Z,71.15
2017-01-02T00:07:56.131Z,71.34
2017-01-02T00:08:56.170Z,70.97
2017-01-02T00:09:56.150Z,71.06
2017-01-02T00:10:56.162Z,70.97
2017-01-02T00:11:56.169Z,71.15
2017-01-02T00:12:56.182Z,71.15
2017-01-02T00:13:56.191Z,71.25
2017-01-02T00:14:56.202Z,70.97
2017-01-02T00:15:56.210Z,71.34
2017-01-02T00:16:56.223Z,71.25
2017-01-02T00:17:56.231Z,71.34
2017-01-02T00:18:56.240Z,71.25
2017-01-02T00:19:56.254Z,71.53
2017-01-02T00:20:56.262Z,70.87
2017-01-02T00:21:56.273Z,70.78
2017-01-02T00:22:56.285Z,70.97
2017-01-02T00:23:56.290Z,70.78
2017-01-02T00:24:56.310Z,70.78
2017-01-02T00:25:56.312Z,70.49
2017-01-02T00:26:56.322Z,71.34
2017-01-02T00:27:56.332Z,71.34
2017-01-02T00:28:56.345Z,71.53
2017-01-02T00:29:56.352Z,70.87
2017-01-02T00:30:56.360Z,71.15
2017-01-02T00:31:56.371Z,71.06
2017-01-02T00:32:56.384Z,70.49
2017-01-02T00:33:56.392Z,70.68
2017-01-02T00:34:56.403Z,70.87
2017-01-02T00:35:56.418Z,71.25
2017-01-02T00:36:56.426Z,71.25
2017-01-02T00:37:56.433Z,70.97
2017-01-02T00:38:56.444Z,71.34
2017-01-02T00:39:56.453Z,70.87
2017-01-02T00:40:56.463Z,71.34
2017-01-02T00:41:56.474Z,71.34
2017-01-02T00:42:56.486Z,70.78
2017-01-02T00:43:56.496Z,70.97
2017-01-02T00:44:56.504Z,71.34
2017-01-02T00:45:56.513Z,70.87
2017-01-02T00:46:56.524Z,71.06
2017-01-02T00:47:56.537Z,71.06
2017-01-02T00:48:56.545Z,71.15
2017-01-02T00:49:56.557Z,71.25
2017-01-02T00:50:56.573Z,71.25
2017-01-02T00:51:56.574Z,71.15
2017-01-02T00:52:56.587Z,71.15
2017-01-02T00:53:56.596Z,71.44
2017-01-02T00:54:56.606Z,71.44
2017-01-02T00:55:56.615Z,71.34
2017-01-02T00:56:56.625Z,70.68
2017-01-02T00:57:56.640Z,70.87
2017-01-02T00:58:56.648Z,71.25
2017-01-02T00:59:56.658Z,71.25
2017-01-02T01:00:56.667Z,71.53
2017-01-02T01:01:56.675Z,71.34
2017-01-02T01:02:56.688Z,71.25
2017-01-02T01:03:56.703Z,71.34
2017-01-02T01:04:56.706Z,71.25
2017-01-02T01:05:56.723Z,71.25
2017-01-02T01:06:56.729Z,70.97
2017-01-02T01:07:56.742Z,70.97
2017-01-02T01:08:56.748Z,71.15
2017-01-02T01:09:56.761Z,70.97
2017-01-02T01:10:56.768Z,71.25
2017-01-02T01:11:56.805Z,71.25
2017-01-02T01:12:56.791Z,71.34
2017-01-02T01:13:56.800Z,71.25
2017-01-02T01:14:56.812Z,71.25
2017-01-02T01:15:56.830Z,71.44
2017-01-02T01:16:56.828Z,71.34
2017-01-02T01:17:56.845Z,71.06
2017-01-02T01:18:56.848Z,71.15
2017-01-02T01:19:56.857Z,71.06
2017-01-02T01:20:56.872Z,71.15
2017-01-02T01:21:56.882Z,71.15
2017-01-02T01:22:56.892Z,71.09
2017-01-02T01:23:56.903Z,71
2017-01-02T01:24:56.911Z,71
2017-01-02T01:25:56.922Z,70.97
2017-01-02T01:26:56.927Z,71.15
2017-01-02T01:27:56.942Z,71.25
2017-01-02T01:28:56.951Z,71.28
2017-01-02T01:29:56.964Z,71.09
2017-01-02T01:30:56.975Z,70.87
2017-01-02T01:31:56.986Z,71.28
2017-01-02T01:32:56.995Z,71.19
2017-01-02T01:33:57.008Z,71.19
2017-01-02T01:34:57.013Z,70.9
2017-01-02T01:35:57.023Z,71.25
2017-01-02T01:36:57.034Z,71.19
2017-01-02T01:37:57.043Z,71.38
2017-01-02T01:38:57.059Z,71.85
2017-01-02T01:39:57.062Z,71.47
2017-01-02T01:40:57.072Z,71
2017-01-02T01:41:57.086Z,71.28
2017-01-02T01:42:57.096Z,71
2017-01-02T01:43:57.105Z,71.57
2017-01-02T01:44:57.123Z,71.28
2017-01-02T01:45:57.127Z,71.44
2017-01-02T01:46:57.136Z,71.09
2017-01-02T01:47:57.147Z,71.38
2017-01-02T01:48:57.156Z,70.81
2017-01-02T01:49:57.165Z,70.9
2017-01-02T01:50:57.176Z,71.28
2017-01-02T01:51:57.189Z,71.57
2017-01-02T01:52:57.197Z,71.38
2017-01-02T01:53:57.210Z,71.57
2017-01-02T01:54:57.219Z,71.47
2017-01-02T01:55:57.228Z,71.66
2017-01-02T01:56:57.242Z,71.47
2017-01-02T01:57:57.252Z,71.38
2017-01-02T01:58:57.262Z,71.47
2017-01-02T01:59:57.275Z,71.57
2017-01-02T02:00:57.281Z,71.47
2017-01-02T02:01:57.292Z,71.47
2017-01-02T02:02:57.301Z,71.57
2017-01-02T02:03:57.313Z,71.66
2017-01-02T02:04:57.319Z,71.66
2017-01-02T02:05:57.350Z,72.04
2017-01-02T02:06:57.345Z,71.95
2017-01-02T02:07:57.358Z,72.04
2017-01-02T02:08:57.364Z,71.76
2017-01-02T02:09:57.375Z,71.85
2017-01-02T02:10:57.387Z,72.14
2017-01-02T02:11:57.398Z,71.85
2017-01-02T02:12:57.408Z,72.04
2017-01-02T02:13:57.421Z,72.04
2017-01-02T02:14:57.434Z,71.95
2017-01-02T02:15:57.437Z,71.95
2017-01-02T02:16:57.452Z,71.95
2017-01-02T02:17:57.459Z,71.95
2017-01-02T02:18:57.507Z,71.85
2017-01-02T02:19:57.495Z,71.47
2017-01-02T02:20:57.516Z,71.47
2017-01-02T02:21:57.501Z,71.19
2017-01-02T02:22:57.513Z,71.28
2017-01-02T02:23:57.545Z,71.09
2017-01-02T02:24:57.529Z,71.19
2017-01-02T02:25:57.541Z,71.38
2017-01-02T02:26:57.549Z,71.19
2017-01-02T02:27:57.563Z,71
2017-01-02T02:28:57.573Z,71.19
2017-01-02T02:29:57.584Z,71.38
2017-01-02T02:30:57.594Z,71
2017-01-02T02:31:57.614Z,71.28
2017-01-02T02:32:57.615Z,71.38
2017-01-02T02:33:57.632Z,71.28
2017-01-02T02:34:57.638Z,71.47
2017-01-02T02:35:57.645Z,70.72
2017-01-02T02:36:57.658Z,70.72
2017-01-02T02:37:57.669Z,71.09
2017-01-02T02:38:57.675Z,70.9
2017-01-02T02:39:57.686Z,71.38
2017-01-02T02:40:57.699Z,71
2017-01-02T02:41:57.707Z,70.9
2017-01-02T02:42:57.716Z,71.09
2017-01-02T02:43:57.733Z,71.38
2017-01-02T02:44:57.746Z,71.57
2017-01-02T02:45:57.749Z,71.76
2017-01-02T02:46:57.759Z,71.47
2017-01-02T02:47:57.771Z,71.47
2017-01-02T02:48:57.781Z,71.57
2017-01-02T02:49:57.789Z,71.47
2017-01-02T02:50:57.806Z,72.23
2017-01-02T02:51:57.813Z,71.76
2017-01-02T02:52:57.822Z,71.76
2017-01-02T02:53:57.832Z,71.95
2017-01-02T02:54:57.843Z,71.95
2017-01-02T02:55:57.854Z,71.66
2017-01-02T02:56:57.862Z,72.23
2017-01-02T02:57:57.872Z,71.85
2017-01-02T02:58:57.883Z,72.14
2017-01-02T02:59:57.894Z,71.85
2017-01-02T03:00:57.907Z,72.04
2017-01-02T03:01:57.918Z,71.95
2017-01-02T03:02:57.923Z,71.95
2017-01-02T03:03:57.934Z,71.47
2017-01-02T03:04:57.948Z,71.28
2017-01-02T03:05:57.956Z,71.47
2017-01-02T03:06:57.966Z,71.47
2017-01-02T03:07:57.975Z,71.57
2017-01-02T03:08:57.990Z,71.28
2017-01-02T03:09:57.999Z,71
2017-01-02T03:10:58.009Z,71.38
2017-01-02T03:11:58.018Z,71.28
2017-01-02T03:12:58.030Z,71.09
2017-01-02T03:13:58.038Z,71.19
2017-01-02T03:14:58.081Z,71.38
2017-01-02T03:15:58.059Z,71.09
2017-01-02T03:16:58.077Z,70.53
2017-01-02T03:17:58.084Z,70.72
2017-01-02T03:18:58.090Z,70.58
2017-01-02T03:19:58.103Z,71.25
2017-01-02T03:20:58.112Z,71.09
2017-01-02T03:21:58.125Z,71.06
2017-01-02T03:22:58.134Z,71.34
2017-01-02T03:23:58.142Z,70.87
2017-01-02T03:24:58.154Z,71.15
2017-01-02T03:25:58.166Z,71.15
2017-01-02T03:26:58.174Z,70.97
2017-01-02T03:27:58.186Z,71.15
2017-01-02T03:28:58.194Z,71.15
2017-01-02T03:29:58.207Z,71.44
2017-01-02T03:30:58.215Z,71.15
2017-01-02T03:31:58.230Z,71.44
2017-01-02T03:32:58.236Z,71.25
2017-01-02T03:33:58.255Z,70.78
2017-01-02T03:34:58.259Z,71.25
2017-01-02T03:35:58.266Z,71.15
2017-01-02T03:36:58.278Z,71.34
2017-01-02T03:37:58.292Z,71.15
2017-01-02T03:38:58.298Z,71.06
2017-01-02T03:39:58.310Z,70.97
2017-01-02T03:40:58.318Z,70.87
2017-01-02T03:41:58.339Z,70.97
2017-01-02T03:42:58.340Z,70.97
2017-01-02T03:43:58.349Z,71.15
2017-01-02T03:44:58.368Z,71.06
2017-01-02T03:45:58.375Z,71.15
2017-01-02T03:46:58.382Z,71.15
2017-01-02T03:47:58.389Z,71.06
2017-01-02T03:48:58.402Z,71.44
2017-01-02T03:49:58.412Z,71.15
2017-01-02T03:50:58.428Z,70.97
2017-01-02T03:51:58.434Z,71.34
2017-01-02T03:52:58.444Z,71.44
2017-01-02T03:53:58.455Z,71.15
2017-01-02T03:54:58.466Z,71.25
2017-01-02T03:55:58.476Z,70.97
2017-01-02T03:56:58.486Z,71.15
2017-01-02T03:57:58.494Z,71.15
2017-01-02T03:58:58.503Z,71.06
2017-01-02T03:59:58.519Z,71.15
2017-01-02T04:00:58.527Z,71.15
2017-01-02T04:01:58.532Z,71.44
2017-01-02T04:02:58.548Z,71.72
2017-01-02T04:03:58.555Z,72.1
2017-01-02T04:04:58.575Z,71.53
2017-01-02T04:05:58.579Z,71.15
2017-01-02T04:06:58.590Z,70.97
2017-01-02T04:07:58.596Z,71.25
2017-01-02T04:08:58.607Z,71.53
2017-01-02T04:09:58.654Z,72
2017-01-02T04:10:58.653Z,71.91
2017-01-02T04:11:58.637Z,71.91
2017-01-02T04:12:58.649Z,71.81
2017-01-02T04:13:58.659Z,71.91
2017-01-02T04:14:58.670Z,71.81
2017-01-02T04:15:58.679Z,71.81
2017-01-02T04:16:58.687Z,71.91
2017-01-02T04:17:58.698Z,72.1
2017-01-02T04:18:58.713Z,72.1
2017-01-02T04:19:58.719Z,72.29
2017-01-02T04:20:58.729Z,72.1
2017-01-02T04:21:58.741Z,72.1
2017-01-02T04:22:58.751Z,72.1
2017-01-02T04:23:58.758Z,72.86
2017-01-02T04:24:58.772Z,72.38
2017-01-02T04:25:58.779Z,72
2017-01-02T04:26:58.792Z,72.1
2017-01-02T04:27:58.801Z,72
2017-01-02T04:28:58.812Z,72.1
2017-01-02T04:29:58.823Z,72.19
2017-01-02T04:30:58.831Z,72.38
2017-01-02T04:31:58.840Z,72.1
2017-01-02T04:32:58.851Z,72.48
2017-01-02T04:33:58.864Z,72.29
2017-01-02T04:34:58.870Z,72.1
2017-01-02T04:35:58.882Z,72.38
2017-01-02T04:36:58.893Z,72.48
2017-01-02T04:37:58.904Z,72.29
2017-01-02T04:38:58.908Z,72.1
2017-01-02T04:39:58.934Z,72.29
2017-01-02T04:40:58.934Z,72.48
2017-01-02T04:41:58.942Z,72.38
2017-01-02T04:42:58.952Z,72.67
2017-01-02T04:43:58.966Z,72.67
2017-01-02T04:44:58.977Z,72.38
2017-01-02T04:45:58.983Z,72.48
2017-01-02T04:46:58.993Z,72.57
2017-01-02T04:47:59.031Z,72.57
2017-01-02T04:48:59.018Z,72.57
2017-01-02T04:49:59.024Z,72.67
2017-01-02T04:50:59.034Z,72.67
2017-01-02T04:51:59.047Z,72.67
2017-01-02T04:52:59.057Z,72.67
2017-01-02T04:53:59.065Z,72.48
2017-01-02T04:54:59.081Z,72.57
2017-01-02T04:55:59.086Z,72.67
2017-01-02T04:56:59.095Z,72.57
2017-01-02T04:57:59.106Z,72.57
2017-01-02T04:58:59.116Z,72.38
2017-01-02T04:59:59.124Z,72.67
2017-01-02T05:00:59.134Z,72.29
2017-01-02T05:01:59.145Z,72.29
2017-01-02T05:02:59.160Z,72.29
2017-01-02T05:03:59.167Z,72.77
2017-01-02T05:04:59.177Z,72.48
2017-01-02T05:05:59.191Z,72.48
2017-01-02T05:06:59.199Z,72.48
2017-01-02T05:07:59.206Z,72.29
2017-01-02T05:08:59.220Z,72.57
2017-01-02T05:09:59.265Z,73.05
2017-01-02T05:10:59.238Z,73.05
2017-01-02T05:11:59.249Z,72.86
2017-01-02T05:12:59.260Z,72.86
2017-01-02T05:13:59.270Z,72.86
2017-01-02T05:14:59.279Z,72.86
2017-01-02T05:15:59.289Z,72.77
2017-01-02T05:16:59.299Z,72.96
2017-01-02T05:17:59.311Z,72.86
2017-01-02T05:18:59.321Z,72.48
2017-01-02T05:19:59.329Z,72.67
2017-01-02T05:20:59.339Z,72.67
2017-01-02T05:21:59.352Z,73.24
2017-01-02T05:22:59.359Z,72.48
2017-01-02T05:23:59.373Z,72.86
2017-01-02T05:24:59.386Z,72.38
2017-01-02T05:25:59.392Z,72.57
2017-01-02T05:26:59.400Z,72.48
2017-01-02T05:27:59.414Z,72.86
2017-01-02T05:28:59.423Z,72.86
2017-01-02T05:29:59.431Z,72.38
2017-01-02T05:30:59.445Z,72.86
2017-01-02T05:31:59.453Z,73.14
2017-01-02T05:32:59.463Z,72.67
2017-01-02T05:33:59.472Z,73.43
2017-01-02T05:34:59.483Z,73.05
2017-01-02T05:35:59.496Z,72.96
2017-01-02T05:36:59.502Z,73.33
2017-01-02T05:37:59.517Z,73.43
2017-01-02T05:38:59.525Z,72.48
2017-01-02T05:39:59.538Z,73.33
2017-01-02T05:40:59.543Z,72.48
2017-01-02T05:41:59.557Z,72.86
2017-01-02T05:42:59.565Z,73.05
2017-01-02T05:43:59.575Z,73.14
2017-01-02T05:44:59.583Z,72.96
2017-01-02T05:45:59.609Z,72.86
2017-01-02T05:46:59.610Z,72.57
2017-01-02T05:47:59.615Z,72.48
2017-01-02T05:48:59.624Z,72.67
2017-01-02T05:49:59.635Z,72.67
2017-01-02T05:50:59.649Z,73.33
2017-01-02T05:51:59.655Z,73.14
2017-01-02T05:52:59.667Z,72.86
2017-01-02T05:53:59.688Z,72.86
2017-01-02T05:54:59.689Z,72.96
2017-01-02T05:55:59.695Z,73.14
2017-01-02T05:56:59.715Z,73.05
2017-01-02T05:57:59.722Z,72.77
2017-01-02T05:58:59.768Z,72.96
2017-01-02T05:59:59.741Z,72.86
2017-01-02T06:00:59.747Z,73.14
2017-01-02T06:01:59.760Z,72.86
2017-01-02T06:02:59.782Z,72.86
2017-01-02T06:03:59.780Z,73.14
2017-01-02T06:04:59.792Z,72.57
2017-01-02T06:05:59.799Z,72.77
2017-01-02T06:06:59.812Z,73.33
2017-01-02T06:07:59.824Z,73.43
2017-01-02T06:08:59.828Z,72.77
2017-01-02T06:09:59.841Z,73.05
2017-01-02T06:10:59.851Z,72.96
2017-01-02T06:11:59.864Z,72.57
2017-01-02T06:12:59.870Z,73.05
2017-01-02T06:13:59.886Z,73.52
2017-01-02T06:14:59.894Z,73.52
2017-01-02T06:15:59.901Z,73.43
2017-01-02T06:16:59.914Z,73.14
2017-01-02T06:17:59.925Z,73.52
2017-01-02T06:18:59.933Z,73.52
2017-01-02T06:19:59.943Z,73.52
2017-01-02T06:20:59.950Z,73.75
2017-01-02T06:21:59.959Z,73.71
2017-01-02T06:22:59.971Z,73.61
2017-01-02T06:23:59.986Z,73.71
2017-01-02T06:24:59.994Z,73.46
2017-01-02T06:26:00.009Z,73.46
2017-01-02T06:27:00.016Z,73.65
2017-01-02T06:28:00.024Z,73.56
2017-01-02T06:29:00.034Z,73.65
2017-01-02T06:30:00.045Z,73.65
2017-01-02T06:31:00.059Z,73.37
2017-01-02T06:32:00.065Z,73.43
2017-01-02T06:33:00.076Z,73.46
2017-01-02T06:34:00.084Z,73.75
2017-01-02T06:35:00.096Z,73.84
2017-01-02T06:36:00.106Z,73.46
2017-01-02T06:37:00.114Z,73.37
2017-01-02T06:38:00.137Z,73.56
2017-01-02T06:39:00.139Z,73.27
2017-01-02T06:40:00.165Z,73.37
2017-01-02T06:41:00.158Z,73.46
2017-01-02T06:42:00.171Z,73.33
2017-01-02T06:43:00.177Z,73.37
2017-01-02T06:44:00.195Z,73.61
2017-01-02T06:45:00.203Z,73.27
2017-01-02T06:46:00.210Z,73.65
2017-01-02T06:47:00.218Z,73.27
2017-01-02T06:48:00.236Z,73.37
2017-01-02T06:49:00.243Z,73.56
2017-01-02T06:50:00.250Z,73.46
2017-01-02T06:51:00.259Z,73.84
2017-01-02T06:52:00.270Z,73.43
2017-01-02T06:53:00.281Z,73.94
2017-01-02T06:54:00.292Z,73.37
2017-01-02T06:55:00.302Z,73.37
2017-01-02T06:56:00.315Z,73.33
2017-01-02T06:57:00.324Z,73.37
2017-01-02T06:58:00.336Z,73.56
2017-01-02T06:59:00.342Z,73.18
2017-01-02T07:00:00.354Z,73.37
2017-01-02T07:01:00.369Z,73.46
2017-01-02T07:02:00.378Z,73.56
2017-01-02T07:03:00.390Z,73.46
2017-01-02T07:04:00.396Z,73.37
2017-01-02T07:05:00.407Z,73.27
2017-01-02T07:06:00.416Z,73.27
2017-01-02T07:07:00.426Z,73.18
2017-01-02T07:08:00.436Z,73.46
2017-01-02T07:09:00.444Z,73.08
2017-01-02T07:10:00.476Z,73.56
2017-01-02T07:11:00.470Z,73.75
2017-01-02T07:12:00.487Z,73.75
2017-01-02T07:13:00.491Z,73.65
2017-01-02T07:14:00.500Z,73.84
2017-01-02T07:15:00.513Z,73.84
2017-01-02T07:16:00.529Z,73.84
2017-01-02T07:17:00.531Z,73.84
2017-01-02T07:18:00.547Z,73.94
2017-01-02T07:19:00.552Z,73.56
2017-01-02T07:20:00.563Z,73.75
2017-01-02T07:21:00.569Z,73.65
2017-01-02T07:22:00.588Z,73.37
2017-01-02T07:23:00.593Z,73.94
2017-01-02T07:24:00.609Z,73.65
2017-01-02T07:25:00.611Z,73.65
2017-01-02T07:26:00.636Z,73.75
2017-01-02T07:27:00.633Z,73.56
2017-01-02T07:28:00.645Z,73.46
2017-01-02T07:29:00.654Z,73.75
2017-01-02T07:30:00.666Z,73.56
2017-01-02T07:31:00.675Z,73.65
2017-01-02T07:32:00.690Z,73.65
2017-01-02T07:33:00.695Z,73.84
2017-01-02T07:34:00.706Z,73.75
2017-01-02T07:35:00.726Z,73.65
2017-01-02T07:36:00.726Z,73.37
2017-01-02T07:37:00.737Z,73.18
2017-01-02T07:38:00.751Z,73.37
2017-01-02T07:39:00.762Z,73.56
2017-01-02T07:40:00.777Z,73.75
2017-01-02T07:41:00.779Z,74.13
2017-01-02T07:42:00.796Z,73.75
2017-01-02T07:43:00.806Z,73.08
2017-01-02T07:44:00.811Z,73.37
2017-01-02T07:45:00.819Z,73.18
2017-01-02T07:46:00.831Z,73.65
2017-01-02T07:47:00.839Z,73.65
2017-01-02T07:48:00.860Z,74.03
2017-01-02T07:49:00.861Z,73.75
2017-01-02T07:50:00.871Z,73.94
2017-01-02T07:51:00.883Z,74.13
2017-01-02T07:52:00.893Z,73.84
2017-01-02T07:53:00.902Z,73.94
2017-01-02T07:54:00.920Z,73.84
2017-01-02T07:55:00.924Z,73.75
2017-01-02T07:56:00.938Z,73.84
2017-01-02T07:57:00.944Z,74.13
2017-01-02T07:58:00.956Z,73.75
2017-01-02T07:59:00.979Z,73.94
2017-01-02T08:00:00.985Z,74.03
2017-01-02T08:01:00.990Z,73.75
2017-01-02T08:02:01.000Z,73.75
2017-01-02T08:03:01.010Z,73.84
2017-01-02T08:04:01.018Z,74.03
2017-01-02T08:05:01.027Z,73.75
2017-01-02T08:06:01.039Z,73.84
2017-01-02T08:07:01.053Z,73.94
2017-01-02T08:08:01.063Z,73.84
2017-01-02T08:09:01.068Z,73.84
2017-01-02T08:10:01.090Z,73.75
2017-01-02T08:11:01.090Z,73.75
2017-01-02T08:12:01.108Z,73.84
2017-01-02T08:13:01.123Z,74.32
2017-01-02T08:14:01.125Z,73.75
2017-01-02T08:15:01.132Z,73.75
2017-01-02T08:16:01.150Z,73.94
2017-01-02T08:17:01.204Z,73.94
2017-01-02T08:18:01.170Z,73.75
2017-01-02T08:19:01.181Z,73.84
2017-01-02T08:20:01.192Z,73.84
2017-01-02T08:21:01.199Z,74.03
2017-01-02T08:22:01.208Z,73.94
2017-01-02T08:23:01.216Z,74.13
2017-01-02T08:24:01.232Z,74.03
2017-01-02T08:25:01.242Z,73.56
2017-01-02T08:26:01.300Z,73.18
2017-01-02T08:27:01.261Z,73.37
2017-01-02T08:28:01.273Z,73.56
2017-01-02T08:29:01.279Z,73.65
2017-01-02T08:30:01.295Z,73.65
2017-01-02T08:31:01.300Z,73.75
2017-01-02T08:32:01.322Z,73.94
2017-01-02T08:33:01.325Z,74.03
2017-01-02T08:34:01.340Z,73.65
2017-01-02T08:35:01.344Z,73.75
2017-01-02T08:36:01.354Z,73.94
2017-01-02T08:37:01.366Z,73.84
2017-01-02T08:38:01.376Z,73.75
2017-01-02T08:39:01.389Z,73.75
2017-01-02T08:40:01.401Z,73.84
2017-01-02T08:41:01.405Z,73.84
2017-01-02T08:42:01.424Z,73.94
2017-01-02T08:43:01.428Z,73.94
2017-01-02T08:44:01.436Z,73.65
2017-01-02T08:45:01.453Z,73.94
2017-01-02T08:46:01.459Z,73.75
2017-01-02T08:47:01.472Z,73.84
2017-01-02T08:48:01.481Z,74.13
2017-01-02T08:49:01.491Z,73.75
2017-01-02T08:50:01.502Z,73.18
2017-01-02T08:51:01.509Z,73.37
2017-01-02T08:52:01.526Z,73.18
2017-01-02T08:53:01.531Z,73.84
2017-01-02T08:54:01.543Z,73.94
2017-01-02T08:55:01.552Z,73.84
2017-01-02T08:56:01.565Z,73.94
2017-01-02T08:57:01.579Z,73.94
2017-01-02T08:58:01.589Z,73.75
2017-01-02T08:59:01.602Z,74.13
2017-01-02T09:00:01.607Z,73.75
2017-01-02T09:01:01.616Z,73.84
2017-01-02T09:02:01.627Z,74.13
2017-01-02T09:03:01.649Z,73.75
2017-01-02T09:04:01.649Z,73.84
2017-01-02T09:05:01.659Z,73.84
2017-01-02T09:06:01.672Z,74.03
2017-01-02T09:07:01.683Z,73.75
2017-01-02T09:08:01.718Z,73.94
2017-01-02T09:09:01.702Z,73.84
2017-01-02T09:10:01.711Z,73.75
2017-01-02T09:11:01.720Z,74.03
2017-01-02T09:12:01.731Z,73.94
2017-01-02T09:13:01.748Z,73.84
2017-01-02T09:14:01.754Z,73.94
2017-01-02T09:15:01.761Z,73.94
2017-01-02T09:16:01.775Z,73.84
2017-01-02T09:17:01.787Z,73.84
2017-01-02T09:18:01.795Z,73.94
2017-01-02T09:19:01.808Z,73.94
2017-01-02T09:20:01.817Z,74.03
2017-01-02T09:21:01.829Z,74.32
2017-01-02T09:22:01.841Z,74.41
2017-01-02T09:23:01.851Z,74.13
2017-01-02T09:24:01.860Z,73.94
2017-01-02T09:25:01.871Z,73.94
2017-01-02T09:26:01.886Z,74.22
2017-01-02T09:27:01.891Z,74.03
2017-01-02T09:28:01.903Z,74.22
2017-01-02T09:29:01.912Z,74.13
2017-01-02T09:30:01.924Z,74.13
2017-01-02T09:31:01.932Z,73.75
2017-01-02T09:32:01.948Z,74.41
2017-01-02T09:33:01.954Z,74.6
2017-01-02T09:34:01.965Z,74.41
2017-01-02T09:35:01.973Z,74.51
2017-01-02T09:36:01.988Z,74.51
2017-01-02T09:37:02.000Z,74.6
2017-01-02T09:38:02.007Z,74.22
2017-01-02T09:39:02.018Z,74.03
2017-01-02T09:40:02.027Z,74.03
2017-01-02T09:41:02.038Z,74.41
2017-01-02T09:42:02.048Z,74.41
2017-01-02T09:43:02.060Z,73.94
2017-01-02T09:44:02.069Z,74.03
2017-01-02T09:45:02.087Z,74.03
2017-01-02T09:46:02.091Z,74.13
2017-01-02T09:47:02.106Z,74.32
2017-01-02T09:48:02.112Z,74.41
2017-01-02T09:49:02.128Z,74.51
2017-01-02T09:50:02.134Z,74.51
2017-01-02T09:51:02.150Z,74.41
2017-01-02T09:52:02.158Z,74.32
2017-01-02T09:53:02.174Z,74.41
2017-01-02T09:54:02.178Z,74.41
2017-01-02T09:55:02.186Z,74.41
2017-01-02T09:56:02.199Z,74.51
2017-01-02T09:57:02.215Z,74.51
2017-01-02T09:58:02.218Z,74.03
2017-01-02T09:59:02.232Z,73.94
2017-01-02T10:00:02.241Z,74.13
2017-01-02T10:01:02.255Z,74.03
2017-01-02T10:02:02.272Z,74.03
2017-01-02T10:03:02.280Z,73.84
2017-01-02T10:04:02.284Z,74.22
2017-01-02T10:05:02.298Z,74.13
2017-01-02T10:06:02.304Z,74.03
2017-01-02T10:07:02.319Z,74.13
2017-01-02T10:08:02.326Z,73.75
2017-01-02T10:09:02.340Z,74.13
2017-01-02T10:10:02.360Z,74.13
2017-01-02T10:11:02.357Z,74.32
2017-01-02T10:12:02.371Z,74.13
2017-01-02T10:13:02.384Z,74.03
2017-01-02T10:14:02.393Z,74.51
2017-01-02T10:15:02.401Z,74.51
2017-01-02T10:16:02.414Z,74.32
2017-01-02T10:17:02.426Z,74.41
2017-01-02T10:18:02.434Z,74.69
2017-01-02T10:19:02.456Z,74.22
2017-01-02T10:20:02.454Z,74.6
2017-01-02T10:21:02.467Z,74.22
2017-01-02T10:22:02.474Z,74.22
2017-01-02T10:23:02.486Z,74.22
2017-01-02T10:24:02.504Z,73.94
2017-01-02T10:25:02.509Z,74.41
2017-01-02T10:26:02.526Z,73.84
2017-01-02T10:27:02.525Z,74.22
2017-01-02T10:28:02.541Z,74.51
2017-01-02T10:29:02.950Z,74.41
2017-01-02T10:30:02.562Z,74.41
2017-01-02T10:31:02.574Z,74.03
2017-01-02T10:32:02.614Z,74.13
2017-01-02T10:33:02.986Z,74.32
2017-01-02T10:34:02.603Z,74.51
2017-01-02T10:35:02.664Z,74.51
2017-01-02T10:36:02.625Z,74.13
2017-01-02T10:37:02.636Z,74.22
2017-01-02T10:38:02.658Z,74.13
2017-01-02T10:39:02.662Z,74.03
2017-01-02T10:40:02.678Z,74.22
2017-01-02T10:41:02.676Z,74.41
2017-01-02T10:42:02.692Z,73.75
2017-01-02T10:43:02.697Z,73.65
2017-01-02T10:44:02.711Z,73.84
2017-01-02T10:45:02.720Z,74.41
2017-01-02T10:46:02.742Z,74.51
2017-01-02T10:47:02.768Z,74.41
2017-01-02T10:48:02.770Z,74.41
2017-01-02T10:49:02.762Z,74.41
2017-01-02T10:50:02.775Z,74.32
2017-01-02T10:51:02.788Z,74.03
2017-01-02T10:52:02.822Z,74.03
2017-01-02T10:53:02.806Z,74.03
2017-01-02T10:54:02.830Z,74.03
2017-01-02T10:55:02.828Z,74.13
2017-01-02T10:56:02.847Z,73.84
2017-01-02T10:57:02.849Z,74.03
2017-01-02T10:58:02.860Z,74.22
2017-01-02T10:59:02.869Z,73.94
2017-01-02T11:00:02.885Z,74.32
2017-01-02T11:01:02.889Z,74.41
2017-01-02T11:02:02.915Z,74.41
2017-01-02T11:03:02.910Z,74.41
2017-01-02T11:04:02.927Z,74.41
2017-01-02T11:05:02.934Z,74.32
2017-01-02T11:06:02.946Z,74.41
2017-01-02T11:07:02.980Z,74.32
2017-01-02T11:08:02.975Z,74.41
2017-01-02T11:09:02.978Z,74.32
2017-01-02T11:10:03.000Z,74.51
2017-01-02T11:11:03.000Z,74.51
2017-01-02T11:12:03.024Z,73.84
2017-01-02T11:13:03.018Z,74.03
2017-01-02T11:14:03.030Z,74.22
2017-01-02T11:15:03.044Z,74.22
2017-01-02T11:16:03.072Z,74.22
2017-01-02T11:17:03.067Z,74.22
2017-01-02T11:18:03.096Z,74.13
2017-01-02T11:19:03.087Z,73.75
2017-01-02T11:20:03.095Z,74.51
2017-01-02T11:21:03.104Z,74.51
2017-01-02T11:22:03.135Z,74.51
2017-01-02T11:23:03.129Z,74.51
2017-01-02T11:24:03.152Z,74.6
2017-01-02T11:25:03.156Z,74.22
2017-01-02T11:26:03.173Z,74.51
2017-01-02T11:27:03.170Z,74.32
2017-01-02T11:28:03.189Z,74.32
2017-01-02T11:29:03.582Z,74.41
2017-01-02T11:30:03.228Z,74.51
2017-01-02T11:31:03.211Z,74.22
2017-01-02T11:32:03.284Z,74.69
2017-01-02T11:33:03.236Z,74.51
2017-01-02T11:34:03.246Z,74.51
2017-01-02T11:35:03.257Z,74.51
2017-01-02T11:36:03.267Z,74.79
2017-01-02T11:37:03.273Z,74.22
2017-01-02T11:38:03.295Z,74.41
2017-01-02T11:39:03.298Z,74.69
2017-01-02T11:40:03.354Z,74.13
2017-01-02T11:41:03.320Z,73.84
2017-01-02T11:42:03.329Z,73.65
2017-01-02T11:43:03.339Z,74.22
2017-01-02T11:44:03.353Z,74.13
2017-01-02T11:45:03.362Z,74.13
2017-01-02T11:46:03.395Z,74.22
2017-01-02T11:47:03.385Z,74.41
2017-01-02T11:48:03.400Z,73.94
2017-01-02T11:49:03.405Z,74.03
2017-01-02T11:50:03.413Z,73.84
2017-01-02T11:51:03.424Z,74.41
2017-01-02T11:52:03.832Z,74.32
2017-01-02T11:53:03.448Z,74.41
2017-01-02T11:54:03.472Z,74.22
2017-01-02T11:55:03.520Z,74.32
2017-01-02T11:56:03.480Z,74.51
2017-01-02T11:57:03.887Z,73.94
2017-01-02T11:58:03.508Z,74.32
2017-01-02T11:59:03.514Z,74.41
2017-01-02T12:00:03.530Z,74.51
2017-01-02T12:01:03.538Z,74.6
2017-01-02T12:02:03.553Z,74.41
2017-01-02T12:03:03.552Z,74.13
2017-01-02T12:04:03.568Z,74.22
2017-01-02T12:05:03.579Z,74.03
2017-01-02T12:06:03.589Z,74.6
2017-01-02T12:07:03.994Z,74.51
2017-01-02T12:08:03.625Z,74.51
2017-01-02T12:09:03.620Z,74.32
2017-01-02T12:10:03.629Z,74.22
2017-01-02T12:11:03.639Z,74.6
2017-01-02T12:12:03.655Z,74.41
2017-01-02T12:13:03.662Z,74.22
2017-01-02T12:14:03.675Z,74.22
2017-01-02T12:15:03.688Z,74.51
2017-01-02T12:16:03.696Z,74.32
2017-01-02T12:17:03.704Z,74.32
2017-01-02T12:18:03.719Z,74.6
2017-01-02T12:19:03.726Z,74.51
2017-01-02T12:20:03.739Z,74.51
2017-01-02T12:21:03.749Z,74.32
2017-01-02T12:22:03.762Z,74.32
2017-01-02T12:23:03.767Z,74.32
2017-01-02T12:24:03.789Z,74.22
2017-01-02T12:25:03.792Z,74.22
2017-01-02T12:26:03.804Z,74.22
2017-01-02T12:27:03.809Z,74.22
2017-01-02T12:28:03.827Z,74.6
2017-01-02T12:29:03.834Z,74.32
2017-01-02T12:30:03.843Z,74.41
2017-01-02T12:31:03.857Z,74.22
2017-01-02T12:32:03.870Z,74.51
2017-01-02T12:33:03.876Z,74.79
2017-01-02T12:34:03.890Z,74.41
2017-01-02T12:35:03.952Z,74.51
2017-01-02T12:36:03.911Z,74.41
2017-01-02T12:37:03.919Z,73.94
2017-01-02T12:38:04.326Z,74.6
2017-01-02T12:39:03.942Z,74.41
2017-01-02T12:40:03.952Z,74.6
2017-01-02T12:41:03.960Z,74.03
2017-01-02T12:42:03.972Z,74.6
2017-01-02T12:43:03.984Z,74.6
2017-01-02T12:44:03.996Z,74.32
2017-01-02T12:45:04.007Z,74.41
2017-01-02T12:46:04.016Z,74.41
2017-01-02T12:47:04.024Z,74.32
2017-01-02T12:48:04.036Z,74.41
2017-01-02T12:49:04.050Z,74.32
2017-01-02T12:50:04.060Z,74.32
2017-01-02T12:51:04.071Z,74.69
2017-01-02T12:52:04.081Z,74.79
2017-01-02T12:53:04.094Z,74.79
2017-01-02T12:54:04.098Z,74.41
2017-01-02T12:55:04.114Z,74.22